Time;durP1;ratioP1;P1;durP2;ratioP2;P2;SDS_P1;SDS_P2;PMS_P1;PMS_P2;Temp;Humidity;BMP_temperature;BMP_pressure;BME280_temperature;BME280_humidity;BME280_pressure;Samples;Min_cycle;Max_cycle;Signal;HPM_P1;HPM_P2
2022/08/27 00:01:07;;;;;;;6.93;1.70;;;18.20;99.90;;;;;;5033861;28;20041;-78
2022/08/27 00:03:33;;;;;;;3.90;1.70;;;18.20;99.90;;;;;;5034122;28;20045;-78
2022/08/27 00:05:58;;;;;;;4.37;1.23;;;18.30;99.90;;;;;;5033966;28;20053;-78
2022/08/27 00:08:24;;;;;;;5.07;1.70;;;18.20;99.90;;;;;;5033838;28;20687;-78
2022/08/27 00:10:50;;;;;;;4.60;1.60;;;18.20;99.90;;;;;;5033876;28;20049;-77
2022/08/27 00:13:15;;;;;;;6.07;1.57;;;18.20;99.90;;;;;;5032517;28;20049;-77
2022/08/27 00:15:41;;;;;;;5.50;1.83;;;18.10;99.90;;;;;;5033853;28;20053;-77
2022/08/27 00:18:06;;;;;;;6.93;1.60;;;18.10;99.90;;;;;;5033854;28;20046;-77
2022/08/27 00:20:33;;;;;;;3.90;1.77;;;18.10;99.90;;;;;;5033743;28;20436;-77
2022/08/27 00:22:58;;;;;;;6.68;1.80;;;18.10;99.90;;;;;;5033772;28;20049;-78
2022/08/27 00:25:24;;;;;;;3.53;1.43;;;18.10;99.90;;;;;;5033719;28;20045;-77
2022/08/27 00:27:50;;;;;;;4.60;1.83;;;18.00;99.90;;;;;;5033861;28;20374;-78
2022/08/27 00:30:18;;;;;;;5.97;1.80;;;18.00;99.90;;;;;;5034118;28;20045;-77
2022/08/27 00:32:44;;;;;;;5.32;1.70;;;18.00;99.90;;;;;;5034229;28;20092;-78
2022/08/27 00:35:10;;;;;;;4.77;1.50;;;18.00;99.90;;;;;;5032438;28;20047;-77
2022/08/27 00:37:36;;;;;;;6.57;1.92;;;18.00;99.90;;;;;;5033632;28;20291;-78
2022/08/27 00:40:04;;;;;;;5.67;1.60;;;17.90;99.90;;;;;;5033446;28;20038;-77
2022/08/27 00:42:30;;;;;;;4.00;1.58;;;17.90;99.90;;;;;;5033567;28;20041;-78
2022/08/27 00:44:55;;;;;;;4.50;1.60;;;17.90;99.90;;;;;;5033401;28;20049;-77
2022/08/27 00:47:24;;;;;;;4.13;1.53;;;17.90;99.90;;;;;;5033426;28;20056;-78
2022/08/27 00:49:55;;;;;;;4.40;1.70;;;17.80;99.90;;;;;;5033272;28;20167;-78
2022/08/27 00:52:24;;;;;;;5.22;1.98;;;17.80;99.90;;;;;;5033906;28;20049;-77
2022/08/27 00:55:01;;;;;;;4.82;1.65;;;17.90;99.90;;;;;;5033362;28;20055;-78
2022/08/27 00:57:28;;;;;;;4.57;1.50;;;17.80;99.90;;;;;;5033778;28;20088;-77
2022/08/27 00:59:54;;;;;;;3.65;1.65;;;17.80;99.90;;;;;;5037401;28;20037;-77
2022/08/27 01:02:20;;;;;;;6.22;1.63;;;17.60;99.90;;;;;;5036941;28;20501;-77
2022/08/27 01:04:57;;;;;;;3.83;1.60;;;17.70;99.90;;;;;;5037191;28;20056;-77
2022/08/27 01:07:25;;;;;;;4.55;1.60;;;17.70;99.90;;;;;;5037616;28;20087;-78
2022/08/27 01:09:53;;;;;;;5.78;1.90;;;17.70;99.90;;;;;;5035850;28;20041;-77
2022/08/27 01:12:19;;;;;;;4.50;2.25;;;17.70;99.90;;;;;;5037086;28;20042;-78
2022/08/27 01:14:45;;;;;;;4.17;1.67;;;17.60;99.90;;;;;;5036900;28;20127;-78
2022/08/27 01:17:13;;;;;;;6.88;2.08;;;17.70;99.90;;;;;;5036937;28;20049;-77
2022/08/27 01:19:50;;;;;;;4.53;1.50;;;17.60;99.90;;;;;;5036948;28;20396;-77
2022/08/27 01:22:25;;;;;;;4.70;1.60;;;17.60;99.90;;;;;;5037238;28;20412;-77
2022/08/27 01:24:55;;;;;;;4.35;1.75;;;17.60;99.90;;;;;;5037009;28;20033;-77
2022/08/27 01:27:24;;;;;;;7.15;1.83;;;17.50;99.90;;;;;;5035702;28;20045;-78
2022/08/27 01:29:50;;;;;;;6.00;1.73;;;17.40;99.90;;;;;;5036860;28;20488;-78
2022/08/27 01:32:35;;;;;;;4.50;1.60;;;17.40;99.90;;;;;;5037749;28;20084;-77
2022/08/27 01:35:03;;;;;;;5.30;1.45;;;17.30;99.90;;;;;;5037195;28;20042;-78
2022/08/27 01:37:29;;;;;;;5.75;1.63;;;17.30;99.90;;;;;;5035523;28;20096;-77
2022/08/27 01:39:57;;;;;;;4.33;1.77;;;17.30;99.90;;;;;;5036703;28;20077;-77
2022/08/27 01:42:30;;;;;;;4.30;1.80;;;17.30;99.90;;;;;;5019419;28;20049;-78
2022/08/27 01:45:04;;;;;;;4.70;1.65;;;17.30;99.90;;;;;;5036646;28;20424;-78
2022/08/27 01:47:30;;;;;;;5.88;1.90;;;17.30;99.90;;;;;;5036471;28;20477;-77
2022/08/27 01:49:57;;;;;;;5.03;1.50;;;17.30;99.90;;;;;;5036349;28;20104;-78
2022/08/27 01:52:26;;;;;;;4.65;1.83;;;17.30;99.90;;;;;;5036365;28;20050;-78
2022/08/27 01:54:52;;;;;;;3.97;1.60;;;17.30;99.90;;;;;;5036191;28;20137;-77
2022/08/27 01:57:18;;;;;;;5.13;1.57;;;17.30;99.90;;;;;;5035153;28;20084;-77
2022/08/27 01:59:44;;;;;;;;;;;17.30;99.90;;;;;;5036648;28;20037;-77
2022/08/27 02:02:13;;;;;;;5.00;1.55;;;17.20;99.90;;;;;;5036132;28;19948;-78
2022/08/27 02:04:39;;;;;;;5.35;1.92;;;17.20;99.90;;;;;;5036209;28;20046;-77
2022/08/27 02:07:04;;;;;;;5.83;1.83;;;17.20;99.90;;;;;;5036109;28;20183;-77
2022/08/27 02:09:31;;;;;;;5.97;1.67;;;17.10;99.90;;;;;;5034390;28;20084;-77
2022/08/27 02:11:56;;;;;;;4.07;1.43;;;17.30;99.90;;;;;;5036114;28;20049;-77
2022/08/27 02:14:22;;;;;;;4.07;1.90;;;17.20;99.90;;;;;;5035301;28;20068;-79
2022/08/27 02:16:49;;;;;;;5.17;1.70;;;17.20;99.90;;;;;;5036272;28;20493;-77
2022/08/27 02:19:15;;;;;;;;;;;17.10;99.90;;;;;;5036433;28;20042;-77
2022/08/27 02:21:41;;;;;;;6.38;1.60;;;17.10;99.90;;;;;;5035569;28;20399;-77
2022/08/27 02:24:06;;;;;;;4.57;1.70;;;17.00;99.90;;;;;;5035807;28;20397;-77
2022/08/27 02:26:32;;;;;;;4.17;1.80;;;17.00;99.90;;;;;;5034540;28;20496;-79
2022/08/27 02:28:57;;;;;;;6.20;1.80;;;17.00;99.90;;;;;;5034833;28;20045;-77
2022/08/27 02:31:23;;;;;;;5.20;1.60;;;17.00;99.90;;;;;;5036243;28;20041;-79
2022/08/27 02:33:49;;;;;;;5.00;2.10;;;17.00;99.90;;;;;;5037396;28;20520;-77
2022/08/27 02:36:16;;;;;;;5.30;1.70;;;16.90;99.90;;;;;;5035659;28;20172;-78
2022/08/27 02:38:42;;;;;;;4.30;1.48;;;17.00;99.90;;;;;;5035467;28;20057;-77
2022/08/27 02:41:08;;;;;;;4.70;1.87;;;17.00;99.90;;;;;;5035548;28;20049;-77
2022/08/27 02:43:33;;;;;;;7.00;1.80;;;16.90;99.90;;;;;;5035892;28;20398;-79
2022/08/27 02:46:00;;;;;;;3.47;1.70;;;17.00;99.90;;;;;;5035643;28;20053;-77
2022/08/27 02:48:26;;;;;;;5.90;1.60;;;17.00;99.90;;;;;;5035462;28;20056;-76
2022/08/27 02:50:53;;;;;;;4.40;1.90;;;17.00;99.90;;;;;;5035478;28;20045;-79
2022/08/27 02:53:19;;;;;;;5.45;1.70;;;17.00;99.90;;;;;;5035186;28;20134;-77
2022/08/27 02:55:45;;;;;;;4.23;1.47;;;17.00;99.90;;;;;;5034342;28;20038;-77
2022/08/27 02:58:14;;;;;;;5.07;1.60;;;16.90;99.90;;;;;;5034215;28;20052;-77
2022/08/27 03:00:40;;;;;;;8.57;1.65;;;17.00;99.90;;;;;;5035392;28;20068;-77
2022/08/27 03:03:05;;;;;;;3.37;1.50;;;16.90;99.90;;;;;;5035214;28;20049;-77
2022/08/27 03:05:31;;;;;;;4.03;1.90;;;16.80;99.90;;;;;;5035097;28;20049;-77
2022/08/27 03:07:58;;;;;;;6.87;1.80;;;16.90;99.90;;;;;;5034891;28;20038;-76
2022/08/27 03:10:23;;;;;;;;;;;16.70;99.90;;;;;;5035363;28;20099;-77
2022/08/27 03:12:49;;;;;;;3.90;1.52;;;16.70;99.90;;;;;;5034016;28;19929;-79
2022/08/27 03:15:17;;;;;;;5.20;1.80;;;16.70;99.90;;;;;;5035229;28;20469;-78
2022/08/27 03:20:28;;;;;;;4.13;1.40;;;16.60;99.90;;;;;;5034318;28;20041;-77
2022/08/27 03:22:54;;;;;;;5.50;1.50;;;16.80;99.90;;;;;;5033647;28;20048;-77
2022/08/27 03:25:20;;;;;;;3.87;1.70;;;16.70;99.90;;;;;;5035052;28;20049;-77
2022/08/27 03:27:45;;;;;;;5.43;1.60;;;16.60;99.90;;;;;;5034927;28;20057;-77
2022/08/27 03:30:14;;;;;;;3.10;1.50;;;16.60;99.90;;;;;;5034522;28;20465;-79
2022/08/27 03:32:41;;;;;;;3.83;1.50;;;16.50;99.90;;;;;;5034833;28;20090;-76
2022/08/27 03:35:07;;;;;;;4.10;1.45;;;16.50;99.90;;;;;;5034709;28;20049;-77
2022/08/27 03:37:33;;;;;;;4.45;1.50;;;16.50;99.90;;;;;;5034109;28;20504;-77
2022/08/27 03:39:59;;;;;;;5.07;1.53;;;16.60;99.90;;;;;;5033589;28;20053;-77
2022/08/27 03:42:25;;;;;;;5.30;1.40;;;16.40;99.90;;;;;;5034355;28;20909;-78
2022/08/27 03:44:51;;;;;;;4.40;1.60;;;16.40;99.90;;;;;;5017142;28;20045;-78
2022/08/27 03:47:17;;;;;;;5.33;1.57;;;16.30;99.90;;;;;;5034234;28;20405;-77
2022/08/27 03:49:43;;;;;;;4.38;1.83;;;16.30;99.90;;;;;;5033860;28;20496;-77
2022/08/27 03:52:09;;;;;;;5.53;1.70;;;16.30;99.90;;;;;;5034214;28;20045;-77
2022/08/27 03:54:36;;;;;;;4.60;1.85;;;16.30;99.90;;;;;;5033981;28;20056;-77
2022/08/27 03:57:02;;;;;;;3.90;1.63;;;16.20;99.90;;;;;;5034059;28;20041;-77
2022/08/27 03:59:27;;;;;;;6.85;1.92;;;16.20;99.90;;;;;;5033980;28;20041;-77
2022/08/27 04:01:53;;;;;;;5.33;1.87;;;16.20;99.90;;;;;;5033954;28;20135;-78
2022/08/27 04:04:19;;;;;;;5.00;1.70;;;16.20;99.90;;;;;;5033061;28;20077;-77
2022/08/27 04:06:44;;;;;;;3.27;1.50;;;16.20;99.90;;;;;;5034355;28;20046;-77
2022/08/27 04:09:10;;;;;;;4.73;1.60;;;16.20;99.90;;;;;;5033007;28;20045;-77
2022/08/27 04:11:36;;;;;;;4.70;1.63;;;16.20;99.90;;;;;;5033917;28;20136;-77
2022/08/27 04:14:03;;;;;;;5.22;1.77;;;16.20;99.90;;;;;;5033719;28;20057;-77
2022/08/27 04:16:29;;;;;;;4.72;1.77;;;16.10;99.90;;;;;;5033726;28;20053;-77
2022/08/27 04:18:54;;;;;;;3.10;1.53;;;16.10;99.90;;;;;;5033850;28;20393;-77
2022/08/27 04:21:22;;;;;;;4.67;2.00;;;16.10;99.90;;;;;;5034289;28;20045;-77
2022/08/27 04:23:47;;;;;;;4.35;1.60;;;16.10;99.90;;;;;;5033696;28;20409;-78
2022/08/27 04:26:14;;;;;;;7.33;1.80;;;16.10;99.90;;;;;;5033899;28;20046;-78
2022/08/27 04:28:40;;;;;;;7.00;2.10;;;16.10;99.90;;;;;;5033642;28;20045;-78
2022/08/27 04:31:06;;;;;;;5.17;2.00;;;16.10;99.90;;;;;;5033742;28;20047;-77
2022/08/27 04:33:32;;;;;;;4.82;1.67;;;16.10;99.90;;;;;;5035553;28;20075;-76
2022/08/27 04:36:03;;;;;;;4.40;1.77;;;16.00;99.90;;;;;;5038228;28;20041;-78
2022/08/27 04:38:29;;;;;;;3.80;1.70;;;16.20;99.90;;;;;;5037759;28;20049;-77
2022/08/27 04:43:38;;;;;;;5.50;1.90;;;16.00;99.90;;;;;;5037451;28;20049;-77
2022/08/27 04:46:05;;;;;;;4.63;1.70;;;15.90;99.90;;;;;;5037407;28;20055;-78
2022/08/27 04:48:31;;;;;;;5.70;1.90;;;15.90;99.90;;;;;;5036370;28;20049;-78
2022/08/27 04:50:57;;;;;;;5.15;1.90;;;15.80;99.90;;;;;;5036229;28;20108;-77
2022/08/27 04:53:23;;;;;;;4.83;1.87;;;15.90;99.90;;;;;;5037351;28;20053;-77
2022/08/27 04:55:54;;;;;;;4.25;1.88;;;15.80;99.90;;;;;;5037291;28;20041;-77
2022/08/27 04:58:21;;;;;;;3.97;1.60;;;15.80;99.90;;;;;;5037300;28;20051;-77
2022/08/27 05:00:50;;;;;;;6.03;1.98;;;15.80;99.90;;;;;;5036015;28;20124;-77
2022/08/27 05:03:18;;;;;;;3.83;1.83;;;15.80;99.90;;;;;;5037113;28;20141;-77
2022/08/27 05:05:45;;;;;;;5.28;1.85;;;15.80;99.90;;;;;;5037151;28;20088;-77
2022/08/27 05:08:11;;;;;;;5.80;1.98;;;15.80;99.90;;;;;;5036286;28;20056;-77
2022/08/27 05:10:50;;;;;;;5.60;1.90;;;15.80;99.90;;;;;;5037028;28;20481;-78
2022/08/27 05:13:18;;;;;;;6.05;1.95;;;15.80;99.90;;;;;;5036724;28;20367;-77
2022/08/27 05:15:44;;;;;;;4.68;1.80;;;15.80;99.90;;;;;;5035755;28;20037;-77
2022/08/27 05:18:12;;;;;;;6.03;2.00;;;15.70;99.90;;;;;;5034495;28;20049;-77
2022/08/27 05:20:46;;;;;;;5.35;1.98;;;15.80;99.90;;;;;;5035582;28;20045;-77
2022/08/27 05:23:12;;;;;;;8.23;1.92;;;15.70;99.90;;;;;;5035900;28;20049;-78
2022/08/27 05:25:44;;;;;;;8.95;1.98;;;15.80;99.90;;;;;;5035626;28;20037;-77
2022/08/27 05:28:12;;;;;;;4.45;1.88;;;15.80;99.90;;;;;;5035985;28;20045;-77
2022/08/27 05:30:40;;;;;;;4.30;1.60;;;15.80;99.90;;;;;;5035417;28;20132;-77
2022/08/27 05:33:06;;;;;;;5.75;1.90;;;15.80;99.90;;;;;;5035386;28;20044;-77
2022/08/27 05:35:38;;;;;;;5.47;2.10;;;15.80;99.90;;;;;;5035980;28;20401;-77
2022/08/27 05:38:04;;;;;;;4.18;1.88;;;15.80;99.90;;;;;;5035562;28;20045;-77
2022/08/27 05:40:29;;;;;;;5.37;1.70;;;15.80;99.90;;;;;;5035267;28;20508;-77
2022/08/27 05:42:55;;;;;;;4.90;2.03;;;15.90;99.90;;;;;;5034336;28;20045;-78
2022/08/27 05:45:21;;;;;;;6.57;2.27;;;15.80;99.90;;;;;;5017760;28;20382;-77
2022/08/27 05:47:46;;;;;;;6.33;1.90;;;15.80;99.90;;;;;;5035230;28;20046;-77
2022/08/27 05:50:12;;;;;;;6.57;2.00;;;15.80;99.90;;;;;;5034966;28;20049;-77
2022/08/27 05:52:37;;;;;;;5.10;1.77;;;15.80;99.90;;;;;;5034377;28;20049;-77
2022/08/27 05:55:03;;;;;;;4.17;2.13;;;15.80;99.90;;;;;;5035041;28;20041;-77
2022/08/27 05:57:29;;;;;;;8.40;2.30;;;15.80;99.90;;;;;;5035011;28;20041;-77
2022/08/27 06:02:39;;;;;;;5.70;1.85;;;15.80;99.90;;;;;;5034832;28;20049;-77
2022/08/27 06:05:04;;;;;;;4.93;1.70;;;15.80;99.90;;;;;;5035077;28;20042;-77
2022/08/27 06:07:32;;;;;;;5.90;1.97;;;15.80;99.90;;;;;;5034839;28;20083;-77
2022/08/27 06:09:58;;;;;;;3.83;1.67;;;15.80;99.90;;;;;;5034820;28;20041;-77
2022/08/27 06:12:24;;;;;;;5.53;1.90;;;15.90;99.90;;;;;;5034860;28;20061;-77
2022/08/27 06:14:50;;;;;;;5.30;1.75;;;16.00;99.90;;;;;;4998548;28;1059522;-77
2022/08/27 06:17:16;;;;;;;4.13;2.00;;;16.10;99.90;;;;;;5034771;28;20046;-77
2022/08/27 06:19:42;;;;;;;5.88;1.75;;;16.30;99.90;;;;;;5035782;28;20045;-77
2022/08/27 06:22:08;;;;;;;6.38;2.22;;;16.30;99.90;;;;;;5034594;28;20204;-77
2022/08/27 06:24:35;;;;;;;4.80;1.67;;;16.30;99.90;;;;;;5034703;28;20053;-77
2022/08/27 06:27:00;;;;;;;7.22;2.10;;;16.40;99.90;;;;;;5035604;28;20351;-78
2022/08/27 06:29:26;;;;;;;5.93;1.53;;;16.50;99.90;;;;;;5034420;28;20129;-77
2022/08/27 06:31:53;;;;;;;4.63;1.60;;;16.60;99.90;;;;;;5035830;28;20507;-77
2022/08/27 06:34:19;;;;;;;4.38;1.65;;;16.70;99.90;;;;;;5035569;28;20054;-77
2022/08/27 06:36:45;;;;;;;9.00;1.90;;;16.80;99.90;;;;;;5035882;28;20054;-78
2022/08/27 06:39:12;;;;;;;5.47;1.73;;;16.90;99.90;;;;;;5035383;28;20599;-78
2022/08/27 06:41:39;;;;;;;5.53;1.80;;;17.00;99.90;;;;;;5034211;28;20061;-78
2022/08/27 06:44:05;;;;;;;4.97;2.10;;;17.00;99.90;;;;;;5035354;28;20060;-78
2022/08/27 06:46:31;;;;;;;6.07;1.93;;;17.20;99.90;;;;;;5035299;28;20046;-77
2022/08/27 06:48:59;;;;;;;7.53;2.30;;;17.20;99.90;;;;;;5035161;28;20044;-77
2022/08/27 06:51:27;;;;;;;5.90;1.80;;;17.30;99.90;;;;;;5033910;28;20052;-78
2022/08/27 06:53:55;;;;;;;7.57;1.77;;;17.30;99.90;;;;;;5035142;28;20052;-78
2022/08/27 06:56:22;;;;;;;6.15;1.80;;;17.50;99.90;;;;;;5034293;28;20041;-77
2022/08/27 06:58:54;;;;;;;3.60;1.60;;;17.60;99.90;;;;;;5034984;28;20048;-77
2022/08/27 07:01:24;;;;;;;4.60;1.70;;;17.60;99.90;;;;;;5035047;28;20057;-77
2022/08/27 07:03:50;;;;;;;4.70;1.60;;;17.80;99.90;;;;;;5035104;28;20060;-78
2022/08/27 07:06:16;;;;;;;4.57;1.40;;;17.90;99.90;;;;;;5033869;28;20045;-77
2022/08/27 07:08:42;;;;;;;4.95;1.70;;;17.90;99.90;;;;;;5034760;28;20045;-78
2022/08/27 07:11:11;;;;;;;4.73;1.57;;;18.00;99.90;;;;;;5034829;28;20041;-77
2022/08/27 07:13:38;;;;;;;4.95;1.83;;;18.10;99.90;;;;;;5017184;28;20511;-78
2022/08/27 07:16:05;;;;;;;4.47;1.60;;;18.20;99.90;;;;;;5034967;28;20115;-77
2022/08/27 07:18:31;;;;;;;4.57;1.70;;;18.30;99.90;;;;;;5034628;28;20068;-77
2022/08/27 07:20:57;;;;;;;5.37;1.70;;;18.40;99.90;;;;;;5034216;28;20437;-77
2022/08/27 07:23:23;;;;;;;5.03;1.60;;;18.40;99.90;;;;;;5034721;28;20288;-77
2022/08/27 07:25:48;;;;;;;7.53;2.03;;;18.30;99.90;;;;;;5034862;28;20041;-77
2022/08/27 07:28:14;;;;;;;5.83;1.60;;;18.40;99.90;;;;;;5034454;28;20041;-77
2022/08/27 07:30:40;;;;;;;5.17;1.53;;;18.50;99.90;;;;;;5034301;28;20524;-77
2022/08/27 07:33:05;;;;;;;4.53;1.50;;;18.70;99.90;;;;;;5034430;28;20045;-77
2022/08/27 07:35:31;;;;;;;4.13;1.63;;;18.80;99.90;;;;;;5034231;28;20477;-77
2022/08/27 07:37:57;;;;;;;4.20;1.63;;;18.90;99.90;;;;;;5033992;28;20052;-78
2022/08/27 07:40:23;;;;;;;4.60;1.80;;;19.00;99.90;;;;;;5034518;28;20050;-77
2022/08/27 07:45:41;;;;;;;3.22;1.33;;;19.30;99.90;;;;;;5034089;28;20045;-77
2022/08/27 07:48:07;;;;;;;4.07;1.60;;;19.40;99.90;;;;;;5034128;28;20397;-77
2022/08/27 07:50:32;;;;;;;5.63;1.50;;;19.50;99.90;;;;;;5032853;28;20042;-77
2022/08/27 07:52:58;;;;;;;4.27;1.40;;;19.60;99.90;;;;;;5034040;28;20033;-77
2022/08/27 07:55:24;;;;;;;3.70;1.50;;;19.70;99.90;;;;;;5033728;28;20056;-78
2022/08/27 07:57:49;;;;;;;4.77;1.57;;;19.90;99.90;;;;;;5033961;28;20133;-78
2022/08/27 08:00:15;;;;;;;6.50;1.70;;;20.00;99.90;;;;;;5033922;28;20050;-77
2022/08/27 08:02:43;;;;;;;5.57;1.67;;;20.10;99.90;;;;;;5033836;28;20397;-77
2022/08/27 08:05:11;;;;;;;4.55;1.30;;;20.20;99.90;;;;;;5033605;28;20562;-77
2022/08/27 08:07:38;;;;;;;5.70;1.48;;;20.30;99.90;;;;;;5034086;28;20045;-77
2022/08/27 08:10:06;;;;;;;5.72;1.50;;;20.40;99.90;;;;;;5033815;28;20041;-77
2022/08/27 08:12:34;;;;;;;5.63;1.83;;;20.50;99.90;;;;;;5033695;28;20049;-77
2022/08/27 08:15:00;;;;;;;6.15;1.50;;;20.50;99.90;;;;;;5033340;28;20067;-77
2022/08/27 08:17:26;;;;;;;4.07;1.17;;;20.60;99.90;;;;;;5033574;28;20124;-77
2022/08/27 08:19:52;;;;;;;4.60;1.40;;;20.70;99.90;;;;;;5033699;28;20046;-78
2022/08/27 08:22:18;;;;;;;5.30;1.38;;;20.70;99.90;;;;;;5032653;28;20485;-77
2022/08/27 08:24:44;;;;;;;9.70;1.48;;;20.80;99.90;;;;;;5033702;28;20124;-78
2022/08/27 08:27:10;;;;;;;3.77;1.33;;;20.90;99.90;;;;;;5033561;28;20136;-78
2022/08/27 08:29:36;;;;;;;7.07;1.23;;;21.00;99.90;;;;;;5033423;28;20038;-77
2022/08/27 08:32:03;;;;;;;6.90;1.55;;;20.90;99.90;;;;;;5033380;28;20465;-78
2022/08/27 08:34:29;;;;;;;4.72;1.52;;;21.00;99.90;;;;;;5033939;28;20057;-77
2022/08/27 08:36:54;;;;;;;4.73;1.57;;;20.90;99.90;;;;;;5033557;28;20053;-77
2022/08/27 08:39:21;;;;;;;5.43;1.40;;;20.80;99.90;;;;;;5033462;28;20067;-77
2022/08/27 08:41:58;;;;;;;5.60;1.38;;;20.70;99.90;;;;;;5033443;28;20050;-77
2022/08/27 08:44:35;;;;;;;5.35;1.50;;;20.50;99.90;;;;;;5033270;28;20042;-78
2022/08/27 08:47:09;;;;;;;5.57;1.70;;;20.50;99.90;;;;;;5033317;28;20042;-78
2022/08/27 08:49:42;;;;;;;5.07;1.50;;;20.40;99.90;;;;;;5033633;28;20081;-78
2022/08/27 08:52:28;;;;;;;5.18;1.48;;;20.40;99.90;;;;;;5033475;28;20053;-78
2022/08/27 08:55:07;;;;;;;4.88;1.58;;;20.30;99.90;;;;;;5033266;28;20087;-78
2022/08/27 08:57:39;;;;;;;7.20;1.80;;;20.30;99.90;;;;;;5031850;28;20037;-78
2022/08/27 09:00:11;;;;;;;7.28;1.73;;;20.50;99.90;;;;;;5033307;28;20048;-78
2022/08/27 09:02:37;;;;;;;5.07;1.63;;;20.70;99.90;;;;;;5032428;28;20048;-78
2022/08/27 09:05:06;;;;;;;3.30;1.10;;;20.80;99.90;;;;;;5033493;28;20092;-78
2022/08/27 09:07:40;;;;;;;5.53;1.50;;;20.90;99.90;;;;;;5032149;28;20050;-78
2022/08/27 09:10:13;;;;;;;5.93;1.90;;;20.90;99.90;;;;;;5032402;28;20049;-78
2022/08/27 09:12:39;;;;;;;8.05;1.63;;;20.80;99.90;;;;;;5032930;28;20037;-78
2022/08/27 09:15:12;;;;;;;6.53;1.60;;;20.80;99.90;;;;;;5033141;28;20064;-78
2022/08/27 09:17:39;;;;;;;6.47;1.67;;;20.80;99.90;;;;;;5033330;28;20045;-78
2022/08/27 09:20:06;;;;;;;;;;;20.60;99.90;;;;;;5035914;28;20468;-78
2022/08/27 09:22:50;;;;;;;5.70;1.60;;;20.60;99.90;;;;;;5036845;28;19921;-78
2022/08/27 09:25:23;;;;;;;5.57;1.70;;;20.60;99.90;;;;;;5036899;28;20049;-78
2022/08/27 09:27:51;;;;;;;6.65;1.70;;;20.70;99.90;;;;;;5035889;28;20112;-79
2022/08/27 09:30:26;;;;;;;8.25;2.28;;;20.70;99.90;;;;;;5036607;28;20033;-78
2022/08/27 09:32:58;;;;;;;7.70;1.70;;;20.80;99.90;;;;;;5036701;28;20051;-78
2022/08/27 09:35:27;;;;;;;5.50;1.60;;;20.90;99.90;;;;;;5037161;28;20042;-78
2022/08/27 09:37:55;;;;;;;5.88;1.50;;;21.00;99.90;;;;;;5036591;28;20103;-78
2022/08/27 09:40:35;;;;;;;6.45;1.63;;;21.00;99.90;;;;;;5036541;28;20053;-78
2022/08/27 09:43:23;;;;;;;7.72;1.85;;;21.10;99.90;;;;;;5036918;28;20041;-78
2022/08/27 09:45:53;;;;;;;5.28;1.48;;;21.10;99.90;;;;;;5035709;28;20045;-78
2022/08/27 09:48:29;;;;;;;4.85;1.60;;;21.30;99.90;;;;;;5036634;28;20076;-78
2022/08/27 09:50:58;;;;;;;6.68;1.48;;;21.40;99.90;;;;;;5036807;28;20033;-78
2022/08/27 09:53:36;;;;;;;5.07;1.33;;;21.30;99.90;;;;;;5035261;28;20121;-78
2022/08/27 09:56:09;;;;;;;5.55;1.58;;;21.30;99.90;;;;;;5036256;28;20076;-78
2022/08/27 09:58:55;;;;;;;5.07;1.60;;;21.20;99.90;;;;;;5018724;28;20053;-78
2022/08/27 10:01:26;;;;;;;6.82;1.50;;;21.10;99.90;;;;;;5036171;28;20067;-78
2022/08/27 10:04:13;;;;;;;6.22;1.45;;;21.00;99.90;;;;;;5036141;28;20049;-78
2022/08/27 10:06:47;;;;;;;8.00;1.60;;;21.10;99.90;;;;;;5036106;28;20042;-78
2022/08/27 10:09:32;;;;;;;4.53;1.75;;;21.10;99.90;;;;;;5035006;28;20049;-77
2022/08/27 10:12:17;;;;;;;6.65;1.63;;;21.10;99.90;;;;;;5036110;28;20041;-78
2022/08/27 10:14:50;;;;;;;4.00;1.33;;;21.10;99.90;;;;;;5036239;28;20053;-78
2022/08/27 10:17:15;;;;;;;6.80;1.50;;;21.10;99.90;;;;;;5035947;28;20041;-78
2022/08/27 10:19:51;;;;;;;4.67;1.20;;;21.10;99.90;;;;;;5036143;28;20046;-78
2022/08/27 10:23:11;;;;;;;5.72;1.70;;;21.20;99.90;;;;;;5036057;28;20056;-78
2022/08/27 10:25:54;;;;;;;6.95;1.48;;;21.60;99.90;;;;;;4955371;29;20493;-78
2022/08/27 10:28:38;;;;;;;6.18;1.80;;;21.90;99.90;;;;;;5036067;28;20095;-78
2022/08/27 10:31:08;;;;;;;5.32;1.70;;;22.10;99.90;;;;;;5034443;28;20060;-78
2022/08/27 10:33:50;;;;;;;4.13;1.25;;;22.10;99.90;;;;;;5035618;28;20056;-78
2022/08/27 10:36:38;;;;;;;5.97;1.50;;;21.90;99.90;;;;;;5034757;28;20049;-78
2022/08/27 10:39:17;;;;;;;6.13;1.67;;;21.80;99.90;;;;;;5035572;28;20052;-78
2022/08/27 10:42:12;;;;;;;4.35;1.20;;;21.70;99.90;;;;;;5034981;28;20059;-77
2022/08/27 10:45:03;;;;;;;6.72;1.50;;;21.70;99.90;;;;;;5024521;28;20064;-77
2022/08/27 10:47:50;;;;;;;5.35;1.40;;;21.60;99.90;;;;;;5035567;28;20049;-78
2022/08/27 10:50:54;;;;;;;4.85;1.60;;;21.70;99.90;;;;;;5035950;28;20128;-78
2022/08/27 10:53:40;;;;;;;5.05;1.38;;;21.70;99.90;;;;;;5035136;28;20068;-78
2022/08/27 10:56:18;;;;;;;10.10;1.80;;;21.90;99.90;;;;;;5035099;28;20045;-78
2022/08/27 10:58:57;;;;;;;4.28;1.40;;;21.80;99.90;;;;;;5035504;28;20041;-78
2022/08/27 11:01:38;;;;;;;5.50;1.48;;;21.80;99.90;;;;;;5034978;28;20049;-78
2022/08/27 11:04:17;;;;;;;6.65;1.45;;;21.60;99.90;;;;;;5035057;28;20045;-78
2022/08/27 11:06:52;;;;;;;6.35;1.55;;;21.60;99.90;;;;;;5034865;28;20055;-77
2022/08/27 11:09:25;;;;;;;8.43;1.88;;;21.60;99.90;;;;;;5035281;28;20041;-78
2022/08/27 11:11:56;;;;;;;6.22;1.50;;;21.50;99.90;;;;;;5034734;28;20045;-78
2022/08/27 11:14:30;;;;;;;7.28;1.73;;;21.60;99.90;;;;;;5035192;28;20097;-78
2022/08/27 11:17:04;;;;;;;5.97;1.60;;;21.60;99.90;;;;;;5034736;28;20064;-78
2022/08/27 11:19:35;;;;;;;4.82;1.58;;;21.80;99.90;;;;;;5035448;28;20042;-78
2022/08/27 11:22:09;;;;;;;6.80;1.35;;;21.80;99.90;;;;;;5034209;28;20049;-78
2022/08/27 11:24:51;;;;;;;4.90;1.30;;;21.80;99.90;;;;;;5033637;28;20120;-78
2022/08/27 11:27:22;;;;;;;5.55;1.38;;;21.80;99.90;;;;;;5034544;28;20044;-78
2022/08/27 11:30:11;;;;;;;3.63;1.25;;;21.90;99.90;;;;;;5034132;28;20445;-78
2022/08/27 11:32:51;;;;;;;8.57;1.70;;;22.00;99.90;;;;;;5033623;28;20577;-77
2022/08/27 11:35:54;;;;;;;4.35;1.20;;;22.20;99.90;;;;;;5034364;28;20049;-78
2022/08/27 11:38:20;;;;;;;5.88;1.58;;;22.40;99.90;;;;;;5034850;28;20050;-78
2022/08/27 11:41:17;;;;;;;7.87;1.47;;;22.70;99.90;;;;;;5033553;28;20137;-78
2022/08/27 11:43:44;;;;;;;6.15;1.27;;;22.90;99.90;;;;;;5023175;28;20292;-78
2022/08/27 11:46:10;;;;;;;7.65;1.45;;;23.20;99.90;;;;;;5034187;28;20497;-78
2022/08/27 11:48:39;;;;;;;6.40;1.42;;;23.40;99.90;;;;;;5033764;28;20053;-78
2022/08/27 11:51:13;;;;;;;5.53;1.30;;;23.60;99.90;;;;;;5034535;28;20497;-78
2022/08/27 11:54:01;;;;;;;8.30;1.88;;;23.70;99.90;;;;;;5033880;28;20044;-79
2022/08/27 11:56:29;;;;;;;6.65;1.60;;;23.80;99.60;;;;;;5033080;28;20087;-78
2022/08/27 11:59:07;;;;;;;5.88;1.30;;;23.80;99.40;;;;;;5033952;28;20052;-78
2022/08/27 12:01:33;;;;;;;;;;;23.60;99.20;;;;;;5034993;28;20045;-78
2022/08/27 12:04:30;;;;;;;4.00;1.40;;;23.30;98.70;;;;;;5033884;28;20423;-78
2022/08/27 12:07:16;;;;;;;5.78;1.35;;;23.30;99.30;;;;;;5034012;28;20060;-78
2022/08/27 12:10:05;;;;;;;3.80;1.25;;;23.20;99.00;;;;;;5019924;28;20053;-78
2022/08/27 12:13:02;;;;;;;4.95;1.13;;;23.00;99.40;;;;;;5033870;28;20079;-78
2022/08/27 12:15:48;;;;;;;5.13;1.42;;;22.90;99.20;;;;;;5033900;28;20052;-78
2022/08/27 12:18:26;;;;;;;6.03;1.60;;;22.80;99.00;;;;;;5033830;28;20046;-78
2022/08/27 12:21:10;;;;;;;6.18;1.35;;;22.80;98.90;;;;;;5032870;28;20138;-78
2022/08/27 12:24:03;;;;;;;3.08;1.30;;;22.80;98.90;;;;;;5033668;28;20052;-78
2022/08/27 12:26:30;;;;;;;4.40;1.30;;;22.90;99.10;;;;;;5033377;28;20057;-78
2022/08/27 12:29:14;;;;;;;;;;;23.00;98.80;;;;;;5034016;28;20052;-78
2022/08/27 12:31:43;;;;;;;3.97;1.20;;;23.10;98.30;;;;;;5033772;28;20407;-78
2022/08/27 12:34:19;;;;;;;3.25;1.17;;;23.20;97.50;;;;;;5033648;28;20164;-77
2022/08/27 12:36:48;;;;;;;4.22;1.42;;;23.20;97.20;;;;;;5033328;28;20509;-78
2022/08/27 12:39:17;;;;;;;6.03;1.60;;;23.10;97.20;;;;;;5033611;28;20424;-79
2022/08/27 12:41:46;;;;;;;5.47;1.23;;;23.00;98.20;;;;;;5032470;28;20054;-79
2022/08/27 12:44:24;;;;;;;4.57;1.33;;;23.00;98.90;;;;;;5032814;28;20054;-78
2022/08/27 12:47:00;;;;;;;4.70;1.25;;;23.00;98.80;;;;;;5032586;28;20132;-78
2022/08/27 12:49:36;;;;;;;3.60;1.07;;;22.80;98.10;;;;;;5034162;28;20045;-79
2022/08/27 12:52:15;;;;;;;4.38;1.20;;;22.80;98.50;;;;;;5033764;28;20373;-78
2022/08/27 12:55:07;;;;;;;5.82;1.30;;;22.70;98.30;;;;;;5035359;28;20045;-79
2022/08/27 12:57:41;;;;;;;6.45;1.67;;;22.70;98.60;;;;;;5037245;28;20045;-78
2022/08/27 13:00:18;;;;;;;3.50;1.20;;;22.70;98.50;;;;;;5037421;28;20053;-78
2022/08/27 13:03:02;;;;;;;;;;;22.80;98.80;;;;;;5037723;28;20048;-78
2022/08/27 13:05:40;;;;;;;3.53;1.13;;;22.90;98.10;;;;;;5037275;28;19921;-78
2022/08/27 13:08:26;;;;;;;5.60;1.67;;;22.90;98.00;;;;;;5037223;28;20117;-78
2022/08/27 13:10:52;;;;;;;6.30;1.40;;;22.90;98.10;;;;;;5037322;28;20133;-78
2022/08/27 13:13:20;;;;;;;3.27;1.13;;;23.10;97.90;;;;;;5037072;28;20123;-78
2022/08/27 13:15:50;;;;;;;4.57;1.20;;;23.50;97.60;;;;;;5036360;28;20049;-78